sensor_id;sensor_type;location;lat;lon;timestamp;P1;durP1;ratioP1;P2;durP2;ratioP2
36415;SDS011;22447;44.530;18.620;2022-09-02T00:00:47;3.03;;;1.80;;
36415;SDS011;22447;44.530;18.620;2022-09-02T00:03:16;3.70;;;1.60;;
36415;SDS011;22447;44.530;18.620;2022-09-02T00:05:43;2.00;;;1.70;;
36415;SDS011;22447;44.530;18.620;2022-09-02T00:08:13;6.05;;;1.50;;
36415;SDS011;22447;44.530;18.620;2022-09-02T00:10:41;2.22;;;1.77;;
36415;SDS011;22447;44.530;18.620;2022-09-02T00:13:10;3.85;;;1.80;;
36415;SDS011;22447;44.530;18.620;2022-09-02T00:15:39;4.38;;;1.70;;
36415;SDS011;22447;44.530;18.620;2022-09-02T00:18:07;2.03;;;1.58;;
36415;SDS011;22447;44.530;18.620;2022-09-02T00:20:37;4.07;;;1.50;;
36415;SDS011;22447;44.530;18.620;2022-09-02T00:23:04;3.05;;;1.40;;
36415;SDS011;22447;44.530;18.620;2022-09-02T00:25:31;2.42;;;1.63;;
36415;SDS011;22447;44.530;18.620;2022-09-02T00:27:57;11.60;;;1.70;;
36415;SDS011;22447;44.530;18.620;2022-09-02T00:30:24;1.65;;;1.55;;
36415;SDS011;22447;44.530;18.620;2022-09-02T00:32:52;2.35;;;1.60;;
36415;SDS011;22447;44.530;18.620;2022-09-02T00:35:19;1.92;;;1.63;;
36415;SDS011;22447;44.530;18.620;2022-09-02T00:37:47;4.13;;;1.58;;
36415;SDS011;22447;44.530;18.620;2022-09-02T00:40:14;3.15;;;1.58;;
36415;SDS011;22447;44.530;18.620;2022-09-02T00:42:41;2.63;;;1.60;;
36415;SDS011;22447;44.530;18.620;2022-09-02T00:45:08;2.63;;;1.67;;
36415;SDS011;22447;44.530;18.620;2022-09-02T00:47:35;5.88;;;1.77;;
36415;SDS011;22447;44.530;18.620;2022-09-02T00:50:06;3.53;;;1.67;;
36415;SDS011;22447;44.530;18.620;2022-09-02T00:52:43;5.50;;;1.90;;
36415;SDS011;22447;44.530;18.620;2022-09-02T00:55:16;2.38;;;1.65;;
36415;SDS011;22447;44.530;18.620;2022-09-02T00:57:50;7.85;;;1.92;;
36415;SDS011;22447;44.530;18.620;2022-09-02T01:00:23;2.53;;;2.03;;
36415;SDS011;22447;44.530;18.620;2022-09-02T01:02:57;5.97;;;1.70;;
36415;SDS011;22447;44.530;18.620;2022-09-02T01:05:27;3.50;;;2.00;;
36415;SDS011;22447;44.530;18.620;2022-09-02T01:07:57;3.00;;;1.50;;
36415;SDS011;22447;44.530;18.620;2022-09-02T01:10:26;4.40;;;1.80;;
36415;SDS011;22447;44.530;18.620;2022-09-02T01:12:56;3.58;;;2.08;;
36415;SDS011;22447;44.530;18.620;2022-09-02T01:15:24;3.53;;;1.67;;
36415;SDS011;22447;44.530;18.620;2022-09-02T01:17:52;4.68;;;2.28;;
36415;SDS011;22447;44.530;18.620;2022-09-02T01:20:23;5.68;;;2.35;;
36415;SDS011;22447;44.530;18.620;2022-09-02T01:22:51;3.05;;;2.50;;
36415;SDS011;22447;44.530;18.620;2022-09-02T01:25:21;2.90;;;2.28;;
36415;SDS011;22447;44.530;18.620;2022-09-02T01:27:49;8.67;;;2.20;;
36415;SDS011;22447;44.530;18.620;2022-09-02T01:30:20;3.50;;;2.13;;
36415;SDS011;22447;44.530;18.620;2022-09-02T01:32:49;5.40;;;2.20;;
36415;SDS011;22447;44.530;18.620;2022-09-02T01:35:20;4.07;;;2.72;;
36415;SDS011;22447;44.530;18.620;2022-09-02T01:37:52;2.60;;;2.40;;
36415;SDS011;22447;44.530;18.620;2022-09-02T01:40:23;5.40;;;2.60;;
36415;SDS011;22447;44.530;18.620;2022-09-02T01:42:55;3.83;;;2.38;;
36415;SDS011;22447;44.530;18.620;2022-09-02T01:45:26;5.97;;;2.75;;
36415;SDS011;22447;44.530;18.620;2022-09-02T01:47:54;8.70;;;2.83;;
36415;SDS011;22447;44.530;18.620;2022-09-02T01:50:23;4.28;;;2.90;;
36415;SDS011;22447;44.530;18.620;2022-09-02T01:52:50;3.22;;;1.95;;
36415;SDS011;22447;44.530;18.620;2022-09-02T01:55:16;5.95;;;2.80;;
36415;SDS011;22447;44.530;18.620;2022-09-02T01:57:43;8.10;;;3.45;;
36415;SDS011;22447;44.530;18.620;2022-09-02T02:00:11;4.07;;;2.72;;
36415;SDS011;22447;44.530;18.620;2022-09-02T02:02:38;4.63;;;3.08;;
36415;SDS011;22447;44.530;18.620;2022-09-02T02:05:08;3.75;;;2.75;;
36415;SDS011;22447;44.530;18.620;2022-09-02T02:07:37;4.40;;;2.67;;
36415;SDS011;22447;44.530;18.620;2022-09-02T02:10:04;5.53;;;2.97;;
36415;SDS011;22447;44.530;18.620;2022-09-02T02:12:33;6.45;;;2.92;;
36415;SDS011;22447;44.530;18.620;2022-09-02T02:15:05;8.75;;;3.53;;
36415;SDS011;22447;44.530;18.620;2022-09-02T02:17:35;4.28;;;2.83;;
36415;SDS011;22447;44.530;18.620;2022-09-02T02:20:04;4.80;;;3.00;;
36415;SDS011;22447;44.530;18.620;2022-09-02T02:22:31;8.43;;;3.67;;
36415;SDS011;22447;44.530;18.620;2022-09-02T02:24:58;11.23;;;3.78;;
36415;SDS011;22447;44.530;18.620;2022-09-02T02:27:27;7.53;;;3.30;;
36415;SDS011;22447;44.530;18.620;2022-09-02T02:29:54;5.32;;;3.10;;
36415;SDS011;22447;44.530;18.620;2022-09-02T02:32:21;3.97;;;3.15;;
36415;SDS011;22447;44.530;18.620;2022-09-02T02:34:47;7.45;;;3.00;;
36415;SDS011;22447;44.530;18.620;2022-09-02T02:37:14;8.43;;;3.88;;
36415;SDS011;22447;44.530;18.620;2022-09-02T02:39:41;6.93;;;3.75;;
36415;SDS011;22447;44.530;18.620;2022-09-02T02:42:09;8.73;;;3.90;;
36415;SDS011;22447;44.530;18.620;2022-09-02T02:44:39;5.90;;;3.53;;
36415;SDS011;22447;44.530;18.620;2022-09-02T02:47:06;14.93;;;4.30;;
36415;SDS011;22447;44.530;18.620;2022-09-02T02:49:38;4.47;;;4.07;;
36415;SDS011;22447;44.530;18.620;2022-09-02T02:52:07;8.65;;;4.97;;
36415;SDS011;22447;44.530;18.620;2022-09-02T02:54:38;6.32;;;4.10;;
36415;SDS011;22447;44.530;18.620;2022-09-02T02:57:05;9.15;;;4.45;;
36415;SDS011;22447;44.530;18.620;2022-09-02T02:59:33;9.82;;;4.53;;
36415;SDS011;22447;44.530;18.620;2022-09-02T03:02:02;5.13;;;4.50;;
36415;SDS011;22447;44.530;18.620;2022-09-02T03:04:31;8.30;;;4.45;;
36415;SDS011;22447;44.530;18.620;2022-09-02T03:06:59;8.98;;;4.25;;
36415;SDS011;22447;44.530;18.620;2022-09-02T03:09:28;6.10;;;3.63;;
36415;SDS011;22447;44.530;18.620;2022-09-02T03:11:55;5.07;;;3.80;;
36415;SDS011;22447;44.530;18.620;2022-09-02T03:14:23;4.32;;;3.83;;
36415;SDS011;22447;44.530;18.620;2022-09-02T03:16:51;11.95;;;3.42;;
36415;SDS011;22447;44.530;18.620;2022-09-02T03:19:18;4.30;;;3.55;;
36415;SDS011;22447;44.530;18.620;2022-09-02T03:21:44;4.78;;;3.45;;
36415;SDS011;22447;44.530;18.620;2022-09-02T03:24:10;6.72;;;4.07;;
36415;SDS011;22447;44.530;18.620;2022-09-02T03:26:39;10.23;;;6.03;;
36415;SDS011;22447;44.530;18.620;2022-09-02T03:29:07;10.15;;;7.28;;
36415;SDS011;22447;44.530;18.620;2022-09-02T03:31:35;11.45;;;5.50;;
36415;SDS011;22447;44.530;18.620;2022-09-02T03:34:02;9.32;;;6.05;;
36415;SDS011;22447;44.530;18.620;2022-09-02T03:36:32;11.38;;;7.20;;
36415;SDS011;22447;44.530;18.620;2022-09-02T03:39:03;9.60;;;6.25;;
36415;SDS011;22447;44.530;18.620;2022-09-02T03:41:31;8.55;;;5.72;;
36415;SDS011;22447;44.530;18.620;2022-09-02T03:43:59;7.70;;;5.65;;
36415;SDS011;22447;44.530;18.620;2022-09-02T03:46:28;7.03;;;6.32;;
36415;SDS011;22447;44.530;18.620;2022-09-02T03:48:54;9.75;;;6.15;;
36415;SDS011;22447;44.530;18.620;2022-09-02T03:51:21;9.77;;;5.35;;
36415;SDS011;22447;44.530;18.620;2022-09-02T03:53:48;7.57;;;5.03;;
36415;SDS011;22447;44.530;18.620;2022-09-02T03:56:16;8.65;;;5.43;;
36415;SDS011;22447;44.530;18.620;2022-09-02T03:58:44;8.95;;;4.55;;
36415;SDS011;22447;44.530;18.620;2022-09-02T04:01:16;8.60;;;4.88;;
36415;SDS011;22447;44.530;18.620;2022-09-02T04:03:45;6.20;;;4.47;;
36415;SDS011;22447;44.530;18.620;2022-09-02T04:06:17;8.05;;;4.28;;
36415;SDS011;22447;44.530;18.620;2022-09-02T04:11:15;7.53;;;4.18;;
36415;SDS011;22447;44.530;18.620;2022-09-02T04:13:46;6.38;;;4.15;;
36415;SDS011;22447;44.530;18.620;2022-09-02T04:16:17;6.55;;;3.63;;
36415;SDS011;22447;44.530;18.620;2022-09-02T04:18:47;7.13;;;4.35;;
36415;SDS011;22447;44.530;18.620;2022-09-02T04:21:13;8.10;;;3.50;;
36415;SDS011;22447;44.530;18.620;2022-09-02T04:23:40;4.88;;;3.80;;
36415;SDS011;22447;44.530;18.620;2022-09-02T04:26:09;9.93;;;4.03;;
36415;SDS011;22447;44.530;18.620;2022-09-02T04:28:37;6.13;;;3.97;;
36415;SDS011;22447;44.530;18.620;2022-09-02T04:31:09;5.55;;;3.90;;
36415;SDS011;22447;44.530;18.620;2022-09-02T04:33:39;9.27;;;4.65;;
36415;SDS011;22447;44.530;18.620;2022-09-02T04:36:11;8.73;;;5.10;;
36415;SDS011;22447;44.530;18.620;2022-09-02T04:41:07;10.15;;;3.83;;
36415;SDS011;22447;44.530;18.620;2022-09-02T04:43:36;8.40;;;4.63;;
36415;SDS011;22447;44.530;18.620;2022-09-02T04:46:03;8.82;;;4.13;;
36415;SDS011;22447;44.530;18.620;2022-09-02T04:48:33;6.93;;;4.38;;
36415;SDS011;22447;44.530;18.620;2022-09-02T04:51:07;8.30;;;4.38;;
36415;SDS011;22447;44.530;18.620;2022-09-02T04:53:37;7.65;;;4.32;;
36415;SDS011;22447;44.530;18.620;2022-09-02T04:56:04;6.43;;;4.35;;
36415;SDS011;22447;44.530;18.620;2022-09-02T04:58:33;6.68;;;4.10;;
36415;SDS011;22447;44.530;18.620;2022-09-02T05:01:09;6.95;;;4.63;;
36415;SDS011;22447;44.530;18.620;2022-09-02T05:03:40;4.85;;;4.07;;
36415;SDS011;22447;44.530;18.620;2022-09-02T05:06:10;8.70;;;5.32;;
36415;SDS011;22447;44.530;18.620;2022-09-02T05:08:40;10.05;;;8.40;;
36415;SDS011;22447;44.530;18.620;2022-09-02T05:11:19;14.60;;;8.82;;
36415;SDS011;22447;44.530;18.620;2022-09-02T05:13:47;15.98;;;10.63;;
36415;SDS011;22447;44.530;18.620;2022-09-02T05:16:19;17.75;;;11.88;;
36415;SDS011;22447;44.530;18.620;2022-09-02T05:18:52;16.88;;;11.32;;
36415;SDS011;22447;44.530;18.620;2022-09-02T05:21:20;16.13;;;11.45;;
36415;SDS011;22447;44.530;18.620;2022-09-02T05:23:50;20.92;;;12.43;;
36415;SDS011;22447;44.530;18.620;2022-09-02T05:26:17;16.17;;;12.32;;
36415;SDS011;22447;44.530;18.620;2022-09-02T05:28:45;17.58;;;12.80;;
36415;SDS011;22447;44.530;18.620;2022-09-02T05:31:13;17.35;;;12.60;;
36415;SDS011;22447;44.530;18.620;2022-09-02T05:33:42;16.17;;;12.45;;
36415;SDS011;22447;44.530;18.620;2022-09-02T05:36:12;16.08;;;12.20;;
36415;SDS011;22447;44.530;18.620;2022-09-02T05:38:42;14.70;;;10.75;;
36415;SDS011;22447;44.530;18.620;2022-09-02T05:41:12;17.55;;;10.52;;
36415;SDS011;22447;44.530;18.620;2022-09-02T05:43:42;15.05;;;9.10;;
36415;SDS011;22447;44.530;18.620;2022-09-02T05:46:10;14.90;;;9.10;;
36415;SDS011;22447;44.530;18.620;2022-09-02T05:48:42;13.13;;;8.40;;
36415;SDS011;22447;44.530;18.620;2022-09-02T05:51:28;10.00;;;7.07;;
36415;SDS011;22447;44.530;18.620;2022-09-02T05:53:56;12.02;;;7.75;;
36415;SDS011;22447;44.530;18.620;2022-09-02T05:56:26;11.10;;;7.35;;
36415;SDS011;22447;44.530;18.620;2022-09-02T05:58:56;11.80;;;7.43;;
36415;SDS011;22447;44.530;18.620;2022-09-02T06:01:25;12.77;;;7.30;;
36415;SDS011;22447;44.530;18.620;2022-09-02T06:03:53;16.02;;;7.18;;
36415;SDS011;22447;44.530;18.620;2022-09-02T06:06:21;10.80;;;6.25;;
36415;SDS011;22447;44.530;18.620;2022-09-02T06:08:48;13.27;;;7.20;;
36415;SDS011;22447;44.530;18.620;2022-09-02T06:11:15;14.50;;;8.63;;
36415;SDS011;22447;44.530;18.620;2022-09-02T06:13:42;16.35;;;9.80;;
36415;SDS011;22447;44.530;18.620;2022-09-02T06:16:29;17.42;;;7.90;;
36415;SDS011;22447;44.530;18.620;2022-09-02T06:18:56;11.38;;;7.68;;
36415;SDS011;22447;44.530;18.620;2022-09-02T06:21:24;13.98;;;7.65;;
36415;SDS011;22447;44.530;18.620;2022-09-02T06:23:55;10.05;;;7.05;;
36415;SDS011;22447;44.530;18.620;2022-09-02T06:26:22;9.13;;;5.90;;
36415;SDS011;22447;44.530;18.620;2022-09-02T06:28:51;11.30;;;6.13;;
36415;SDS011;22447;44.530;18.620;2022-09-02T06:31:21;8.00;;;4.67;;
36415;SDS011;22447;44.530;18.620;2022-09-02T06:33:52;14.43;;;5.47;;
36415;SDS011;22447;44.530;18.620;2022-09-02T06:51:26;13.82;;;6.13;;
36415;SDS011;22447;44.530;18.620;2022-09-02T06:53:58;8.88;;;4.90;;
36415;SDS011;22447;44.530;18.620;2022-09-02T06:56:28;10.48;;;6.18;;
36415;SDS011;22447;44.530;18.620;2022-09-02T06:58:55;7.40;;;4.07;;
36415;SDS011;22447;44.530;18.620;2022-09-02T07:01:34;13.25;;;5.50;;
36415;SDS011;22447;44.530;18.620;2022-09-02T07:04:02;8.68;;;4.95;;
36415;SDS011;22447;44.530;18.620;2022-09-02T07:06:51;12.85;;;5.55;;
36415;SDS011;22447;44.530;18.620;2022-09-02T07:09:21;6.82;;;4.60;;
36415;SDS011;22447;44.530;18.620;2022-09-02T07:11:49;11.50;;;6.25;;
36415;SDS011;22447;44.530;18.620;2022-09-02T07:14:18;7.13;;;5.10;;
36415;SDS011;22447;44.530;18.620;2022-09-02T07:16:51;7.85;;;4.45;;
36415;SDS011;22447;44.530;18.620;2022-09-02T07:19:18;8.25;;;4.63;;
36415;SDS011;22447;44.530;18.620;2022-09-02T07:21:44;8.00;;;4.72;;
36415;SDS011;22447;44.530;18.620;2022-09-02T07:24:11;7.88;;;4.07;;
36415;SDS011;22447;44.530;18.620;2022-09-02T07:26:40;6.82;;;4.22;;
36415;SDS011;22447;44.530;18.620;2022-09-02T07:29:07;13.88;;;5.32;;
36415;SDS011;22447;44.530;18.620;2022-09-02T07:31:34;13.27;;;6.50;;
36415;SDS011;22447;44.530;18.620;2022-09-02T07:34:03;9.10;;;5.45;;
36415;SDS011;22447;44.530;18.620;2022-09-02T07:36:36;12.23;;;6.05;;
36415;SDS011;22447;44.530;18.620;2022-09-02T07:39:04;8.40;;;4.53;;
36415;SDS011;22447;44.530;18.620;2022-09-02T07:41:33;9.25;;;4.97;;
36415;SDS011;22447;44.530;18.620;2022-09-02T07:44:02;11.55;;;4.90;;
36415;SDS011;22447;44.530;18.620;2022-09-02T07:46:29;10.05;;;4.68;;
36415;SDS011;22447;44.530;18.620;2022-09-02T07:48:57;8.52;;;4.97;;
36415;SDS011;22447;44.530;18.620;2022-09-02T07:51:32;8.15;;;3.92;;
36415;SDS011;22447;44.530;18.620;2022-09-02T07:54:00;9.90;;;4.80;;
36415;SDS011;22447;44.530;18.620;2022-09-02T07:56:28;9.02;;;5.25;;
36415;SDS011;22447;44.530;18.620;2022-09-02T07:58:54;6.53;;;4.70;;
36415;SDS011;22447;44.530;18.620;2022-09-02T08:01:20;10.82;;;4.07;;
36415;SDS011;22447;44.530;18.620;2022-09-02T08:03:47;6.93;;;4.50;;
36415;SDS011;22447;44.530;18.620;2022-09-02T08:06:13;8.80;;;4.22;;
36415;SDS011;22447;44.530;18.620;2022-09-02T08:08:39;6.68;;;4.85;;
36415;SDS011;22447;44.530;18.620;2022-09-02T08:11:07;9.77;;;4.95;;
36415;SDS011;22447;44.530;18.620;2022-09-02T08:13:33;9.40;;;4.50;;
36415;SDS011;22447;44.530;18.620;2022-09-02T08:16:00;11.73;;;4.50;;
36415;SDS011;22447;44.530;18.620;2022-09-02T08:18:27;10.70;;;5.18;;
36415;SDS011;22447;44.530;18.620;2022-09-02T08:20:53;9.73;;;4.32;;
36415;SDS011;22447;44.530;18.620;2022-09-02T08:23:20;5.15;;;3.80;;
36415;SDS011;22447;44.530;18.620;2022-09-02T08:25:46;7.30;;;4.50;;
36415;SDS011;22447;44.530;18.620;2022-09-02T08:28:12;7.43;;;3.83;;
36415;SDS011;22447;44.530;18.620;2022-09-02T08:30:38;6.95;;;4.57;;
36415;SDS011;22447;44.530;18.620;2022-09-02T08:33:05;9.75;;;4.40;;
36415;SDS011;22447;44.530;18.620;2022-09-02T08:35:31;4.72;;;3.80;;
36415;SDS011;22447;44.530;18.620;2022-09-02T08:37:57;8.93;;;3.90;;
36415;SDS011;22447;44.530;18.620;2022-09-02T08:40:26;4.97;;;3.85;;
36415;SDS011;22447;44.530;18.620;2022-09-02T08:43:00;4.72;;;3.17;;
36415;SDS011;22447;44.530;18.620;2022-09-02T08:50:52;8.55;;;4.95;;
36415;SDS011;22447;44.530;18.620;2022-09-02T08:56:10;7.80;;;3.92;;
36415;SDS011;22447;44.530;18.620;2022-09-02T08:58:41;4.43;;;3.83;;
36415;SDS011;22447;44.530;18.620;2022-09-02T09:06:32;6.22;;;3.45;;
36415;SDS011;22447;44.530;18.620;2022-09-02T09:12:06;5.28;;;3.67;;
36415;SDS011;22447;44.530;18.620;2022-09-02T09:15:02;5.55;;;3.40;;
36415;SDS011;22447;44.530;18.620;2022-09-02T09:20:15;5.28;;;3.58;;
36415;SDS011;22447;44.530;18.620;2022-09-02T09:22:47;7.47;;;4.10;;
36415;SDS011;22447;44.530;18.620;2022-09-02T09:25:15;4.50;;;3.47;;
36415;SDS011;22447;44.530;18.620;2022-09-02T09:27:43;8.50;;;4.80;;
36415;SDS011;22447;44.530;18.620;2022-09-02T09:30:10;10.60;;;4.32;;
36415;SDS011;22447;44.530;18.620;2022-09-02T09:32:43;6.80;;;4.82;;
36415;SDS011;22447;44.530;18.620;2022-09-02T09:35:16;7.28;;;4.20;;
36415;SDS011;22447;44.530;18.620;2022-09-02T09:37:44;11.50;;;4.32;;
36415;SDS011;22447;44.530;18.620;2022-09-02T09:51:06;25.00;;;5.78;;
36415;SDS011;22447;44.530;18.620;2022-09-02T09:53:36;14.80;;;4.80;;
36415;SDS011;22447;44.530;18.620;2022-09-02T09:56:03;14.00;;;4.43;;
36415;SDS011;22447;44.530;18.620;2022-09-02T10:01:11;22.10;;;4.97;;
36415;SDS011;22447;44.530;18.620;2022-09-02T10:03:49;21.75;;;6.38;;
36415;SDS011;22447;44.530;18.620;2022-09-02T10:06:20;16.48;;;5.15;;
36415;SDS011;22447;44.530;18.620;2022-09-02T10:08:57;17.10;;;4.80;;
36415;SDS011;22447;44.530;18.620;2022-09-02T10:11:29;17.88;;;4.85;;
36415;SDS011;22447;44.530;18.620;2022-09-02T10:14:00;6.95;;;4.07;;
36415;SDS011;22447;44.530;18.620;2022-09-02T10:16:51;7.00;;;4.80;;
36415;SDS011;22447;44.530;18.620;2022-09-02T10:19:33;19.52;;;6.20;;
36415;SDS011;22447;44.530;18.620;2022-09-02T10:33:48;6.10;;;3.80;;
36415;SDS011;22447;44.530;18.620;2022-09-02T10:36:42;17.30;;;5.15;;
36415;SDS011;22447;44.530;18.620;2022-09-02T10:42:15;16.10;;;6.05;;
36415;SDS011;22447;44.530;18.620;2022-09-02T10:45:09;13.88;;;5.35;;
36415;SDS011;22447;44.530;18.620;2022-09-02T10:47:36;11.93;;;4.47;;
36415;SDS011;22447;44.530;18.620;2022-09-02T10:52:52;17.52;;;5.00;;
36415;SDS011;22447;44.530;18.620;2022-09-02T10:55:24;9.93;;;4.18;;
36415;SDS011;22447;44.530;18.620;2022-09-02T11:00:43;16.33;;;5.05;;
36415;SDS011;22447;44.530;18.620;2022-09-02T11:06:34;7.22;;;3.90;;
36415;SDS011;22447;44.530;18.620;2022-09-02T11:09:10;12.45;;;3.85;;
36415;SDS011;22447;44.530;18.620;2022-09-02T11:11:46;8.05;;;3.70;;
36415;SDS011;22447;44.530;18.620;2022-09-02T11:14:29;8.63;;;4.00;;
36415;SDS011;22447;44.530;18.620;2022-09-02T11:17:08;16.63;;;4.72;;
36415;SDS011;22447;44.530;18.620;2022-09-02T11:20:15;16.25;;;3.85;;
36415;SDS011;22447;44.530;18.620;2022-09-02T11:26:03;7.88;;;3.22;;
36415;SDS011;22447;44.530;18.620;2022-09-02T11:31:56;8.35;;;2.95;;
36415;SDS011;22447;44.530;18.620;2022-09-02T11:34:33;8.88;;;3.35;;
36415;SDS011;22447;44.530;18.620;2022-09-02T11:37:05;4.28;;;2.85;;
36415;SDS011;22447;44.530;18.620;2022-09-02T11:39:35;13.35;;;4.40;;
36415;SDS011;22447;44.530;18.620;2022-09-02T11:50:17;8.73;;;4.13;;
36415;SDS011;22447;44.530;18.620;2022-09-02T11:55:39;14.80;;;5.90;;
36415;SDS011;22447;44.530;18.620;2022-09-02T11:58:28;12.05;;;4.85;;
36415;SDS011;22447;44.530;18.620;2022-09-02T12:03:55;7.28;;;3.65;;
36415;SDS011;22447;44.530;18.620;2022-09-02T12:06:29;13.35;;;6.30;;
36415;SDS011;22447;44.530;18.620;2022-09-02T12:08:56;16.95;;;8.23;;
36415;SDS011;22447;44.530;18.620;2022-09-02T12:11:44;40.25;;;19.58;;
36415;SDS011;22447;44.530;18.620;2022-09-02T12:17:02;51.72;;;24.55;;
36415;SDS011;22447;44.530;18.620;2022-09-02T12:19:40;55.00;;;25.27;;
36415;SDS011;22447;44.530;18.620;2022-09-02T12:24:57;62.63;;;29.90;;
36415;SDS011;22447;44.530;18.620;2022-09-02T12:27:36;52.83;;;25.55;;
36415;SDS011;22447;44.530;18.620;2022-09-02T12:30:13;55.63;;;25.55;;
36415;SDS011;22447;44.530;18.620;2022-09-02T12:35:28;40.60;;;19.20;;
36415;SDS011;22447;44.530;18.620;2022-09-02T12:38:22;34.90;;;16.90;;
36415;SDS011;22447;44.530;18.620;2022-09-02T12:55:07;28.60;;;12.95;;
36415;SDS011;22447;44.530;18.620;2022-09-02T12:57:40;28.60;;;13.48;;
36415;SDS011;22447;44.530;18.620;2022-09-02T13:00:12;36.00;;;15.25;;
36415;SDS011;22447;44.530;18.620;2022-09-02T13:02:50;25.75;;;12.65;;
36415;SDS011;22447;44.530;18.620;2022-09-02T13:05:36;30.30;;;14.73;;
36415;SDS011;22447;44.530;18.620;2022-09-02T13:17:19;38.72;;;14.93;;
36415;SDS011;22447;44.530;18.620;2022-09-02T13:31:23;30.23;;;12.80;;
36415;SDS011;22447;44.530;18.620;2022-09-02T13:34:10;34.70;;;12.75;;
36415;SDS011;22447;44.530;18.620;2022-09-02T13:36:44;23.35;;;10.93;;
36415;SDS011;22447;44.530;18.620;2022-09-02T13:39:17;30.35;;;12.95;;
36415;SDS011;22447;44.530;18.620;2022-09-02T13:41:45;26.02;;;11.85;;
36415;SDS011;22447;44.530;18.620;2022-09-02T13:44:20;31.67;;;13.27;;
36415;SDS011;22447;44.530;18.620;2022-09-02T13:46:53;21.15;;;10.07;;
36415;SDS011;22447;44.530;18.620;2022-09-02T13:49:26;32.83;;;11.93;;
36415;SDS011;22447;44.530;18.620;2022-09-02T13:51:58;30.00;;;12.50;;
36415;SDS011;22447;44.530;18.620;2022-09-02T13:54:34;26.30;;;11.45;;
36415;SDS011;22447;44.530;18.620;2022-09-02T13:57:09;27.15;;;10.95;;
36415;SDS011;22447;44.530;18.620;2022-09-02T13:59:48;30.67;;;10.85;;
36415;SDS011;22447;44.530;18.620;2022-09-02T14:04:52;21.58;;;10.25;;
36415;SDS011;22447;44.530;18.620;2022-09-02T14:07:31;22.67;;;9.52;;
36415;SDS011;22447;44.530;18.620;2022-09-02T14:10:04;23.40;;;10.35;;
36415;SDS011;22447;44.530;18.620;2022-09-02T14:12:34;16.17;;;7.53;;
36415;SDS011;22447;44.530;18.620;2022-09-02T14:15:02;15.43;;;8.38;;
36415;SDS011;22447;44.530;18.620;2022-09-02T14:17:31;15.43;;;8.82;;
36415;SDS011;22447;44.530;18.620;2022-09-02T14:22:54;23.00;;;8.27;;
36415;SDS011;22447;44.530;18.620;2022-09-02T14:25:22;18.00;;;8.02;;
36415;SDS011;22447;44.530;18.620;2022-09-02T14:27:50;16.00;;;7.45;;
36415;SDS011;22447;44.530;18.620;2022-09-02T14:30:26;19.23;;;7.32;;
36415;SDS011;22447;44.530;18.620;2022-09-02T14:35:40;15.25;;;7.63;;
36415;SDS011;22447;44.530;18.620;2022-09-02T14:38:06;15.27;;;7.78;;
36415;SDS011;22447;44.530;18.620;2022-09-02T14:40:33;14.50;;;6.85;;
36415;SDS011;22447;44.530;18.620;2022-09-02T14:43:01;17.00;;;7.78;;
36415;SDS011;22447;44.530;18.620;2022-09-02T14:45:30;15.93;;;7.47;;
36415;SDS011;22447;44.530;18.620;2022-09-02T14:48:01;22.02;;;8.50;;
36415;SDS011;22447;44.530;18.620;2022-09-02T14:50:35;16.40;;;7.50;;
36415;SDS011;22447;44.530;18.620;2022-09-02T14:53:03;14.38;;;7.15;;
36415;SDS011;22447;44.530;18.620;2022-09-02T14:55:51;14.48;;;8.32;;
36415;SDS011;22447;44.530;18.620;2022-09-02T14:58:19;13.55;;;6.85;;
36415;SDS011;22447;44.530;18.620;2022-09-02T15:00:50;17.95;;;7.63;;
36415;SDS011;22447;44.530;18.620;2022-09-02T15:03:19;14.88;;;7.45;;
36415;SDS011;22447;44.530;18.620;2022-09-02T15:05:48;19.50;;;7.70;;
36415;SDS011;22447;44.530;18.620;2022-09-02T15:08:14;21.77;;;11.52;;
36415;SDS011;22447;44.530;18.620;2022-09-02T15:10:41;17.15;;;9.27;;
36415;SDS011;22447;44.530;18.620;2022-09-02T15:13:18;18.70;;;8.48;;
36415;SDS011;22447;44.530;18.620;2022-09-02T15:15:52;17.90;;;9.52;;
36415;SDS011;22447;44.530;18.620;2022-09-02T15:18:20;14.00;;;8.70;;
36415;SDS011;22447;44.530;18.620;2022-09-02T15:20:46;19.50;;;9.63;;
36415;SDS011;22447;44.530;18.620;2022-09-02T15:23:13;20.80;;;10.50;;
36415;SDS011;22447;44.530;18.620;2022-09-02T15:25:40;20.90;;;10.50;;
36415;SDS011;22447;44.530;18.620;2022-09-02T15:28:05;18.15;;;10.00;;
36415;SDS011;22447;44.530;18.620;2022-09-02T15:30:32;22.92;;;12.48;;
36415;SDS011;22447;44.530;18.620;2022-09-02T15:33:03;18.92;;;11.00;;
36415;SDS011;22447;44.530;18.620;2022-09-02T15:35:32;21.13;;;10.38;;
36415;SDS011;22447;44.530;18.620;2022-09-02T15:37:59;14.57;;;9.52;;
36415;SDS011;22447;44.530;18.620;2022-09-02T15:40:26;16.75;;;9.02;;
36415;SDS011;22447;44.530;18.620;2022-09-02T15:42:53;14.52;;;7.72;;
36415;SDS011;22447;44.530;18.620;2022-09-02T15:45:20;18.60;;;7.22;;
36415;SDS011;22447;44.530;18.620;2022-09-02T15:47:46;14.13;;;7.72;;
36415;SDS011;22447;44.530;18.620;2022-09-02T15:50:12;15.32;;;7.80;;
36415;SDS011;22447;44.530;18.620;2022-09-02T15:52:39;16.70;;;7.90;;
36415;SDS011;22447;44.530;18.620;2022-09-02T15:55:05;20.08;;;8.45;;
36415;SDS011;22447;44.530;18.620;2022-09-02T15:57:31;17.92;;;7.47;;
36415;SDS011;22447;44.530;18.620;2022-09-02T15:59:57;14.80;;;6.97;;
36415;SDS011;22447;44.530;18.620;2022-09-02T16:02:33;12.77;;;6.43;;
36415;SDS011;22447;44.530;18.620;2022-09-02T16:05:00;10.02;;;6.70;;
36415;SDS011;22447;44.530;18.620;2022-09-02T16:07:26;11.32;;;6.65;;
36415;SDS011;22447;44.530;18.620;2022-09-02T16:09:52;12.68;;;6.55;;
36415;SDS011;22447;44.530;18.620;2022-09-02T16:12:18;12.55;;;6.72;;
36415;SDS011;22447;44.530;18.620;2022-09-02T16:14:44;9.85;;;6.05;;
36415;SDS011;22447;44.530;18.620;2022-09-02T16:17:13;13.07;;;6.57;;
36415;SDS011;22447;44.530;18.620;2022-09-02T16:19:40;12.75;;;6.80;;
36415;SDS011;22447;44.530;18.620;2022-09-02T16:22:06;14.45;;;7.45;;
36415;SDS011;22447;44.530;18.620;2022-09-02T16:24:32;13.68;;;8.25;;
36415;SDS011;22447;44.530;18.620;2022-09-02T16:26:58;15.57;;;7.85;;
36415;SDS011;22447;44.530;18.620;2022-09-02T16:29:24;20.85;;;10.80;;
36415;SDS011;22447;44.530;18.620;2022-09-02T16:31:51;18.35;;;9.50;;
36415;SDS011;22447;44.530;18.620;2022-09-02T16:34:18;21.33;;;8.52;;
36415;SDS011;22447;44.530;18.620;2022-09-02T16:36:45;12.20;;;7.65;;
36415;SDS011;22447;44.530;18.620;2022-09-02T16:39:14;15.63;;;7.90;;
36415;SDS011;22447;44.530;18.620;2022-09-02T16:41:42;15.95;;;7.32;;
36415;SDS011;22447;44.530;18.620;2022-09-02T16:44:11;17.10;;;7.88;;
36415;SDS011;22447;44.530;18.620;2022-09-02T16:46:42;16.55;;;8.45;;
36415;SDS011;22447;44.530;18.620;2022-09-02T16:49:09;13.93;;;9.30;;
36415;SDS011;22447;44.530;18.620;2022-09-02T16:51:37;16.45;;;8.65;;
36415;SDS011;22447;44.530;18.620;2022-09-02T16:54:05;15.52;;;9.23;;
36415;SDS011;22447;44.530;18.620;2022-09-02T16:56:32;16.73;;;8.68;;
36415;SDS011;22447;44.530;18.620;2022-09-02T16:59:01;24.27;;;9.20;;
36415;SDS011;22447;44.530;18.620;2022-09-02T17:01:28;16.30;;;9.45;;
36415;SDS011;22447;44.530;18.620;2022-09-02T17:03:55;16.73;;;9.48;;
36415;SDS011;22447;44.530;18.620;2022-09-02T17:06:21;13.88;;;8.43;;
36415;SDS011;22447;44.530;18.620;2022-09-02T17:08:47;14.85;;;9.10;;
36415;SDS011;22447;44.530;18.620;2022-09-02T17:13:53;17.90;;;9.68;;